Fenwood, Wisconsin
Current Conditions -  °F | °C
As of 6:45 AM on Saturday 22 Nov 2014 (Local Time) from KCWA Reporting Station
Haze Haze  
Wind Chill: 22°   Ceiling: 500
Heat Index: 30°   Visibility: 2mi
Dew Point: 30°   Wind: 9mph
Humidity: 100%   Direction: 210°SSW
Pressure: 29.84"   Gusts: NA
Location:  44.8973°N, 90.0113°W
Report Text: KCWA 221245Z 21008KT 2SM BR OVC005 M01/M01 A2984
Loading
Personal Weather Stations






























Interactive Weather Map New forecast layout! Learn more

10-Day Weather Forecast

Advertisements
Track Severe Weather on mobile